createdAt,value
2023-02-24T00:01:18.963Z,3.00
2023-02-24T00:04:10.137Z,3.00
2023-02-24T00:06:58.183Z,2.97
2023-02-24T00:09:45.109Z,2.80
2023-02-24T00:12:30.784Z,3.20
2023-02-24T00:15:16.517Z,2.83
2023-02-24T00:18:07.073Z,3.42
2023-02-24T00:20:56.571Z,2.72
2023-02-24T00:23:42.839Z,2.78
2023-02-24T00:26:30.396Z,2.45
2023-02-24T00:29:15.957Z,2.58
2023-02-24T00:32:06.609Z,2.50
2023-02-24T00:34:52.676Z,2.95
2023-02-24T00:37:38.509Z,3.17
2023-02-24T00:40:24.060Z,2.40
2023-02-24T00:43:11.313Z,2.78
2023-02-24T00:46:02.552Z,2.45
2023-02-24T00:48:49.241Z,2.55
2023-02-24T00:51:36.682Z,2.30
2023-02-24T00:54:25.415Z,1.73
2023-02-24T00:57:12.331Z,2.17
2023-02-24T01:00:00.725Z,2.25
2023-02-24T01:02:50.245Z,1.70
2023-02-24T01:05:36.718Z,1.85
2023-02-24T01:08:23.034Z,2.15
2023-02-24T01:11:28.288Z,2.28
2023-02-24T01:14:16.459Z,1.90
2023-02-24T01:17:05.670Z,2.63
2023-02-24T01:19:51.903Z,2.20
2023-02-24T01:22:39.703Z,2.35
2023-02-24T01:25:26.872Z,1.88
2023-02-24T01:28:13.920Z,2.20
2023-02-24T01:31:01.905Z,2.78
2023-02-24T01:33:50.059Z,2.65
2023-02-24T01:36:36.402Z,2.70
2023-02-24T01:39:22.405Z,3.35
2023-02-24T01:42:16.259Z,3.00
2023-02-24T01:45:26.304Z,4.28
2023-02-24T01:48:13.075Z,4.05
2023-02-24T01:51:01.764Z,3.65
2023-02-24T01:53:47.978Z,2.97
2023-02-24T01:56:34.567Z,2.88
2023-02-24T01:59:23.477Z,3.00
2023-02-24T02:02:10.371Z,3.35
2023-02-24T02:05:00.937Z,3.67
2023-02-24T02:07:50.288Z,3.10
2023-02-24T02:10:39.498Z,3.08
2023-02-24T02:13:27.019Z,3.72
2023-02-24T02:16:37.075Z,3.47
2023-02-24T02:19:49.033Z,3.55
2023-02-24T02:23:00.743Z,3.33
2023-02-24T02:26:08.934Z,4.35
2023-02-24T02:29:26.156Z,3.95
2023-02-24T02:33:02.151Z,4.80
2023-02-24T02:36:00.676Z,4.80
2023-02-24T02:38:54.190Z,4.63
2023-02-24T02:41:53.172Z,4.40
2023-02-24T02:44:47.638Z,4.68
2023-02-24T02:47:41.392Z,4.50
2023-02-24T02:50:36.013Z,4.60
2023-02-24T02:53:30.991Z,4.57
2023-02-24T02:56:19.948Z,4.57
2023-02-24T02:59:12.696Z,4.10
2023-02-24T03:02:11.409Z,4.35
2023-02-24T03:05:02.169Z,4.05
2023-02-24T03:10:44.721Z,3.88
2023-02-24T03:13:50.991Z,4.63
2023-02-24T03:16:36.761Z,4.90
2023-02-24T03:19:27.832Z,4.60
2023-02-24T03:25:02.037Z,4.80
2023-02-24T03:27:58.959Z,4.65
2023-02-24T03:30:50.369Z,4.40
2023-02-24T03:33:41.218Z,4.60
2023-02-24T03:36:27.618Z,4.32
2023-02-24T03:39:15.784Z,4.43
2023-02-24T03:42:15.602Z,4.35
2023-02-24T03:45:06.307Z,4.68
2023-02-24T03:47:54.034Z,4.15
2023-02-24T03:50:41.868Z,4.05
2023-02-24T03:53:53.305Z,4.53
2023-02-24T03:56:49.677Z,4.00
2023-02-24T03:59:44.839Z,4.07
2023-02-24T04:02:33.934Z,4.50
2023-02-24T04:05:27.458Z,4.32
2023-02-24T04:08:23.370Z,4.07
2023-02-24T04:14:06.488Z,4.03
2023-02-24T04:17:01.169Z,3.85
2023-02-24T04:19:51.608Z,3.92
2023-02-24T04:22:40.907Z,4.00
2023-02-24T04:25:27.924Z,3.78
2023-02-24T04:28:18.901Z,3.25
2023-02-24T04:31:10.103Z,3.10
2023-02-24T04:34:00.260Z,3.40
2023-02-24T04:36:55.524Z,4.10
2023-02-24T04:39:41.643Z,3.33
2023-02-24T04:42:33.335Z,3.47
2023-02-24T04:45:22.031Z,3.10
2023-02-24T04:48:12.882Z,3.88
2023-02-24T04:51:05.990Z,3.15
2023-02-24T04:53:55.402Z,3.75
2023-02-24T04:56:41.677Z,4.10
2023-02-24T04:59:28.074Z,3.35
2023-02-24T05:02:18.178Z,3.33
2023-02-24T05:05:08.096Z,3.47
2023-02-24T05:07:55.171Z,3.25
2023-02-24T05:10:44.747Z,3.03
2023-02-24T05:13:32.429Z,3.65
2023-02-24T05:16:20.372Z,3.42
2023-02-24T05:19:25.050Z,3.65
2023-02-24T05:22:11.784Z,3.28
2023-02-24T05:24:57.807Z,3.10
2023-02-24T05:27:45.228Z,3.47
2023-02-24T05:30:31.286Z,3.03
2023-02-24T05:33:21.538Z,3.70
2023-02-24T05:36:10.531Z,3.78
2023-02-24T05:39:07.652Z,3.88
2023-02-24T05:41:54.784Z,3.13
2023-02-24T05:44:42.006Z,3.97
2023-02-24T05:47:28.325Z,2.97
2023-02-24T05:50:14.375Z,2.75
2023-02-24T05:53:00.374Z,2.97
2023-02-24T05:55:46.341Z,2.92
2023-02-24T05:58:32.361Z,3.65
2023-02-24T06:01:19.697Z,2.80
2023-02-24T06:04:07.227Z,3.45
2023-02-24T06:06:52.663Z,2.95
2023-02-24T06:09:40.288Z,2.92
2023-02-24T06:12:28.703Z,2.35
2023-02-24T06:15:15.045Z,2.80
2023-02-24T06:18:02.232Z,2.17
2023-02-24T06:20:51.229Z,2.47
2023-02-24T06:23:36.904Z,2.80
2023-02-24T06:26:23.202Z,2.75
2023-02-24T06:29:13.195Z,2.38
2023-02-24T06:31:59.059Z,3.08
2023-02-24T06:34:46.521Z,2.70
2023-02-24T06:37:31.918Z,3.05
2023-02-24T06:40:18.182Z,2.85
2023-02-24T06:43:03.943Z,3.20
2023-02-24T06:45:51.338Z,2.78
2023-02-24T06:48:37.974Z,3.53
2023-02-24T06:51:26.916Z,2.60
2023-02-24T06:54:12.682Z,2.78
2023-02-24T06:56:59.382Z,2.70
2023-02-24T06:59:46.068Z,2.47
2023-02-24T07:02:39.830Z,3.25
2023-02-24T07:05:27.356Z,2.85
2023-02-24T07:08:14.708Z,2.58
2023-02-24T07:11:00.448Z,4.90
2023-02-24T07:13:50.516Z,2.20
2023-02-24T07:16:36.901Z,3.20
2023-02-24T07:19:25.623Z,5.20
2023-02-24T07:22:14.585Z,2.05
2023-02-24T07:25:01.784Z,5.72
2023-02-24T07:27:47.744Z,2.17
2023-02-24T07:30:34.125Z,2.58
2023-02-24T07:33:20.237Z,2.00
2023-02-24T07:36:10.508Z,2.22
2023-02-24T07:38:58.857Z,2.20
2023-02-24T07:41:49.606Z,1.70
2023-02-24T07:44:35.832Z,2.78
2023-02-24T07:47:22.847Z,2.63
2023-02-24T07:50:13.335Z,3.00
2023-02-24T07:52:59.697Z,2.25
2023-02-24T07:55:46.433Z,2.00
2023-02-24T07:58:34.312Z,1.80
2023-02-24T08:01:23.473Z,1.90
2023-02-24T08:04:12.536Z,1.80
2023-02-24T08:07:03.868Z,2.20
2023-02-24T08:10:08.633Z,2.45
2023-02-24T08:12:56.004Z,2.72
2023-02-24T08:15:45.294Z,2.67
2023-02-24T08:18:37.314Z,2.38
2023-02-24T08:21:23.718Z,2.65
2023-02-24T08:24:17.610Z,2.38
2023-02-24T08:27:06.316Z,2.70
2023-02-24T08:30:00.666Z,2.38
2023-02-24T08:32:52.567Z,1.75
2023-02-24T08:35:44.453Z,2.15
2023-02-24T08:38:39.808Z,1.98
2023-02-24T08:41:44.846Z,1.88
2023-02-24T08:44:31.016Z,2.22
2023-02-24T08:47:21.102Z,2.45
2023-02-24T08:50:10.510Z,2.30
2023-02-24T08:52:56.260Z,1.85
2023-02-24T08:55:42.764Z,2.13
2023-02-24T08:58:28.491Z,2.25
2023-02-24T09:01:24.089Z,2.40
2023-02-24T09:04:13.209Z,2.35
2023-02-24T09:07:11.264Z,2.75
2023-02-24T09:09:59.997Z,2.00
2023-02-24T09:12:46.698Z,2.58
2023-02-24T09:15:41.360Z,1.95
2023-02-24T09:18:30.367Z,1.90
2023-02-24T09:21:37.377Z,1.98
2023-02-24T09:24:27.302Z,2.22
2023-02-24T09:27:17.210Z,2.05
2023-02-24T09:30:08.071Z,2.80
2023-02-24T09:33:01.190Z,2.10
2023-02-24T09:35:50.089Z,2.50
2023-02-24T09:38:56.796Z,2.50
2023-02-24T09:42:07.563Z,1.90
2023-02-24T09:44:56.617Z,2.92
2023-02-24T09:48:08.095Z,2.17
2023-02-24T09:51:05.628Z,2.13
2023-02-24T09:53:53.818Z,2.40
2023-02-24T09:56:45.013Z,2.28
2023-02-24T09:59:51.013Z,2.78
2023-02-24T10:02:44.380Z,2.38
2023-02-24T10:05:38.462Z,2.75
2023-02-24T10:08:31.033Z,2.70
2023-02-24T10:11:32.948Z,2.45
2023-02-24T10:14:24.189Z,2.40
2023-02-24T10:17:23.043Z,2.58
2023-02-24T10:20:28.615Z,3.15
2023-02-24T10:23:29.624Z,2.45
2023-02-24T10:26:34.790Z,2.85
2023-02-24T10:29:31.108Z,3.53
2023-02-24T10:32:24.458Z,3.22
2023-02-24T10:35:14.550Z,3.22
2023-02-24T10:38:07.312Z,3.30
2023-02-24T10:40:57.491Z,3.90
2023-02-24T10:43:54.575Z,2.85
2023-02-24T10:46:42.450Z,3.63
2023-02-24T10:49:29.948Z,4.35
2023-02-24T10:52:33.420Z,4.28
2023-02-24T10:55:28.741Z,4.25
2023-02-24T10:58:27.883Z,3.92
2023-02-24T11:01:21.052Z,4.40
2023-02-24T11:04:23.000Z,4.40
2023-02-24T11:07:24.702Z,4.25
2023-02-24T11:10:13.856Z,4.10
2023-02-24T11:13:19.384Z,4.75
2023-02-24T11:16:27.947Z,4.07
2023-02-24T11:19:13.622Z,4.82
2023-02-24T11:22:00.398Z,4.88
2023-02-24T11:24:48.511Z,5.47
2023-02-24T11:27:34.685Z,5.55
2023-02-24T11:30:30.997Z,5.80
2023-02-24T11:33:29.089Z,6.03
2023-02-24T11:36:22.718Z,5.50
2023-02-24T11:39:25.229Z,7.13
2023-02-24T11:42:15.988Z,7.05
2023-02-24T11:45:09.371Z,7.30
2023-02-24T11:47:59.680Z,7.40
2023-02-24T11:50:49.210Z,7.45
2023-02-24T11:53:36.959Z,7.55
2023-02-24T11:56:27.151Z,7.88
2023-02-24T11:59:17.837Z,8.10
2023-02-24T12:02:13.237Z,7.95
2023-02-24T12:05:09.557Z,8.00
2023-02-24T12:07:58.717Z,7.80
2023-02-24T12:10:50.790Z,8.95
2023-02-24T12:13:40.216Z,8.35
2023-02-24T12:16:33.259Z,7.60
2023-02-24T12:19:25.505Z,7.30
2023-02-24T12:22:15.312Z,6.85
2023-02-24T12:25:01.353Z,7.40
2023-02-24T12:28:02.063Z,7.25
2023-02-24T12:31:03.270Z,7.70
2023-02-24T12:34:01.075Z,7.20
2023-02-24T12:37:07.733Z,7.53
2023-02-24T12:40:04.831Z,7.22
2023-02-24T12:43:02.086Z,7.38
2023-02-24T12:45:53.760Z,7.00
2023-02-24T12:49:12.149Z,7.93
2023-02-24T12:52:10.107Z,7.43
2023-02-24T12:55:08.688Z,8.18
2023-02-24T12:58:03.380Z,8.68
2023-02-24T13:01:01.877Z,7.63
2023-02-24T13:04:07.310Z,7.55
2023-02-24T13:07:07.520Z,7.43
2023-02-24T13:10:08.066Z,6.82
2023-02-24T13:13:00.411Z,6.90
2023-02-24T13:15:54.588Z,7.22
2023-02-24T13:18:40.444Z,7.35
2023-02-24T13:21:25.898Z,7.10
2023-02-24T13:24:22.458Z,6.70
2023-02-24T13:27:22.859Z,6.85
2023-02-24T13:30:26.407Z,7.65
2023-02-24T13:33:24.780Z,6.32
2023-02-24T13:36:17.181Z,5.55
2023-02-24T13:39:08.063Z,5.53
2023-02-24T13:42:21.864Z,5.13
2023-02-24T13:45:19.676Z,4.35
2023-02-24T13:48:37.671Z,4.50
2023-02-24T13:51:49.266Z,4.03
2023-02-24T13:55:08.380Z,3.53
2023-02-24T13:58:15.585Z,3.67
2023-02-24T14:01:07.377Z,3.25
2023-02-24T14:04:06.076Z,2.95
2023-02-24T14:06:54.675Z,2.70
2023-02-24T14:09:44.976Z,2.90
2023-02-24T14:12:34.456Z,3.33
2023-02-24T14:15:25.365Z,1.70
2023-02-24T14:18:19.814Z,1.60
2023-02-24T14:21:05.890Z,1.27
2023-02-24T14:23:59.881Z,1.30
2023-02-24T14:26:49.397Z,1.50
2023-02-24T14:29:43.960Z,1.42
2023-02-24T14:32:33.646Z,2.15
2023-02-24T14:35:23.725Z,1.88
2023-02-24T14:38:31.188Z,3.05
2023-02-24T14:41:21.035Z,2.03
2023-02-24T14:44:22.269Z,2.38
2023-02-24T14:47:11.789Z,2.50
2023-02-24T14:50:01.964Z,2.38
2023-02-24T14:52:52.816Z,1.40
2023-02-24T14:55:41.942Z,2.57
2023-02-24T14:58:32.767Z,2.10
2023-02-24T15:01:24.051Z,2.05
2023-02-24T15:04:16.228Z,2.30
2023-02-24T15:07:07.560Z,2.05
2023-02-24T15:12:46.035Z,2.00
2023-02-24T15:15:38.260Z,2.13
2023-02-24T15:18:26.656Z,2.20
2023-02-24T15:21:21.548Z,2.63
2023-02-24T15:24:19.711Z,2.67
2023-02-24T15:27:22.446Z,2.05
2023-02-24T15:30:26.747Z,2.30
2023-02-24T15:33:19.383Z,1.92
2023-02-24T15:36:12.359Z,2.03
2023-02-24T15:39:01.983Z,3.90
2023-02-24T15:41:50.478Z,2.90
2023-02-24T15:44:37.260Z,2.70
2023-02-24T15:47:26.633Z,2.10
2023-02-24T15:50:14.154Z,1.95
2023-02-24T15:53:03.830Z,1.50
2023-02-24T15:55:50.425Z,1.30
2023-02-24T15:58:38.518Z,1.67
2023-02-24T16:01:26.165Z,1.05
2023-02-24T16:04:12.152Z,1.00
2023-02-24T16:06:58.065Z,0.95
2023-02-24T16:09:44.220Z,1.13
2023-02-24T16:12:32.399Z,1.40
2023-02-24T16:15:23.595Z,1.02
2023-02-24T16:18:20.929Z,1.60
2023-02-24T16:21:07.580Z,1.20
2023-02-24T16:23:53.625Z,1.55
2023-02-24T16:26:40.722Z,6.20
2023-02-24T16:29:26.398Z,2.05
2023-02-24T16:32:14.304Z,1.85
2023-02-24T16:35:00.592Z,1.25
2023-02-24T16:37:47.244Z,0.90
2023-02-24T16:40:37.671Z,1.50
2023-02-24T16:43:29.494Z,1.30
2023-02-24T16:46:17.905Z,1.35
2023-02-24T16:49:08.130Z,1.60
2023-02-24T16:51:53.704Z,1.38
2023-02-24T16:54:39.869Z,1.52
2023-02-24T16:57:25.826Z,1.80
2023-02-24T17:00:14.854Z,1.70
2023-02-24T17:03:03.773Z,1.42
2023-02-24T17:05:52.340Z,1.25
2023-02-24T17:08:38.652Z,1.88
2023-02-24T17:11:27.121Z,1.35
2023-02-24T17:14:16.949Z,1.50
2023-02-24T17:17:03.277Z,2.30
2023-02-24T17:19:49.190Z,1.70
2023-02-24T17:22:37.205Z,2.10
2023-02-24T17:25:25.630Z,1.98
2023-02-24T17:28:11.789Z,2.58
2023-02-24T17:30:57.812Z,2.58
2023-02-24T17:33:43.731Z,2.13
2023-02-24T17:36:29.369Z,1.80
2023-02-24T17:39:16.468Z,1.95
2023-02-24T17:42:02.359Z,2.08
2023-02-24T17:44:48.286Z,1.90
2023-02-24T17:47:37.696Z,1.85
2023-02-24T17:50:26.590Z,1.90
2023-02-24T17:53:12.739Z,2.40
2023-02-24T17:56:04.967Z,2.22
2023-02-24T17:58:51.189Z,2.35
2023-02-24T18:01:36.711Z,1.95
2023-02-24T18:04:23.123Z,2.10
2023-02-24T18:07:10.277Z,3.20
2023-02-24T18:09:59.420Z,2.60
2023-02-24T18:12:46.810Z,2.17
2023-02-24T18:15:32.629Z,1.48
2023-02-24T18:18:18.484Z,2.33
2023-02-24T18:21:07.286Z,2.80
2023-02-24T18:23:53.234Z,3.33
2023-02-24T18:26:39.430Z,1.52
2023-02-24T18:29:26.621Z,1.65
2023-02-24T18:32:15.062Z,1.80
2023-02-24T18:35:04.747Z,1.50
2023-02-24T18:37:56.559Z,1.98
2023-02-24T18:40:42.314Z,2.00
2023-02-24T18:43:29.266Z,2.00
2023-02-24T18:46:16.977Z,1.92
2023-02-24T18:49:08.815Z,1.60
2023-02-24T18:51:54.868Z,2.38
2023-02-24T18:54:40.815Z,2.35
2023-02-24T18:57:26.604Z,2.80
2023-02-24T19:00:14.246Z,3.05
2023-02-24T19:03:01.579Z,2.55
2023-02-24T19:05:48.022Z,2.42
2023-02-24T19:08:38.001Z,2.60
2023-02-24T19:11:27.353Z,2.60
2023-02-24T19:14:15.695Z,4.07
2023-02-24T19:17:02.039Z,3.65
2023-02-24T19:19:49.118Z,3.88
2023-02-24T19:22:35.562Z,6.07
2023-02-24T19:25:21.453Z,3.33
2023-02-24T19:28:07.361Z,3.35
2023-02-24T19:30:54.202Z,3.35
2023-02-24T19:33:40.156Z,3.03
2023-02-24T19:36:28.915Z,3.42
2023-02-24T19:39:16.676Z,3.70
2023-02-24T19:42:02.721Z,3.67
2023-02-24T19:44:49.677Z,3.35
2023-02-24T19:47:35.766Z,3.10
2023-02-24T19:50:21.349Z,3.10
2023-02-24T19:53:09.158Z,3.22
2023-02-24T19:55:54.823Z,2.70
2023-02-24T19:58:41.009Z,2.92
2023-02-24T20:01:28.705Z,3.33
2023-02-24T20:04:14.579Z,2.83
2023-02-24T20:07:00.382Z,2.80
2023-02-24T20:09:47.781Z,3.28
2023-02-24T20:12:33.374Z,3.00
2023-02-24T20:15:18.944Z,3.25
2023-02-24T20:18:07.921Z,3.03
2023-02-24T20:20:56.935Z,2.97
2023-02-24T20:23:43.322Z,3.40
2023-02-24T20:26:31.360Z,3.25
2023-02-24T20:29:18.637Z,3.53
2023-02-24T20:32:04.449Z,3.03
2023-02-24T20:34:50.477Z,3.35
2023-02-24T20:37:36.414Z,2.33
2023-02-24T20:40:22.453Z,2.63
2023-02-24T20:43:10.462Z,2.70
2023-02-24T20:45:56.635Z,3.28
2023-02-24T20:48:43.025Z,3.03
2023-02-24T20:51:30.384Z,3.38
2023-02-24T20:54:16.647Z,3.05
2023-02-24T20:57:02.665Z,3.80
2023-02-24T21:00:02.841Z,3.17
2023-02-24T21:05:35.216Z,2.58
2023-02-24T21:08:21.244Z,2.63
2023-02-24T21:11:10.982Z,2.55
2023-02-24T21:13:57.808Z,3.53
2023-02-24T21:16:49.730Z,2.55
2023-02-24T21:19:35.497Z,2.35
2023-02-24T21:22:21.168Z,2.85
2023-02-24T21:25:08.075Z,3.10
2023-02-24T21:27:54.568Z,2.53
2023-02-24T21:30:42.619Z,2.30
2023-02-24T21:33:29.865Z,2.42
2023-02-24T21:36:16.689Z,2.72
2023-02-24T21:39:02.360Z,2.17
2023-02-24T21:41:48.558Z,2.30
2023-02-24T21:44:34.262Z,2.50
2023-02-24T21:47:20.833Z,2.20
2023-02-24T21:50:11.850Z,2.60
2023-02-24T21:52:57.789Z,2.00
2023-02-24T21:55:44.529Z,1.45
2023-02-24T21:58:31.053Z,1.90
2023-02-24T22:01:18.503Z,2.40
2023-02-24T22:04:07.494Z,1.67
2023-02-24T22:06:54.924Z,1.92
2023-02-24T22:09:40.678Z,1.23
2023-02-24T22:12:26.890Z,1.27
2023-02-24T22:15:13.565Z,2.30
2023-02-24T22:17:59.224Z,3.92
2023-02-24T22:20:45.320Z,1.55
2023-02-24T22:23:32.337Z,1.63
2023-02-24T22:26:19.296Z,1.50
2023-02-24T22:29:05.228Z,1.80
2023-02-24T22:31:50.866Z,1.70
2023-02-24T22:34:36.755Z,1.33
2023-02-24T22:37:22.297Z,1.30
2023-02-24T22:40:10.758Z,1.30
2023-02-24T22:42:56.050Z,1.77
2023-02-24T22:45:41.786Z,2.25
2023-02-24T22:48:29.419Z,1.70
2023-02-24T22:51:15.117Z,2.53
2023-02-24T22:54:00.765Z,2.08
2023-02-24T22:56:48.227Z,2.05
2023-02-24T22:59:33.723Z,3.25
2023-02-24T23:02:19.567Z,3.33
2023-02-24T23:05:05.980Z,1.80
2023-02-24T23:07:51.507Z,1.83
2023-02-24T23:10:37.128Z,2.00
2023-02-24T23:13:23.907Z,2.28
2023-02-24T23:16:12.092Z,1.85
2023-02-24T23:19:00.865Z,1.65
2023-02-24T23:21:48.302Z,2.13
2023-02-24T23:24:33.878Z,1.95
2023-02-24T23:27:21.352Z,1.95
2023-02-24T23:30:11.783Z,2.28
2023-02-24T23:32:57.544Z,1.83
2023-02-24T23:35:43.878Z,1.95
2023-02-24T23:38:29.409Z,1.88
2023-02-24T23:41:15.116Z,2.47
2023-02-24T23:44:01.022Z,2.45
2023-02-24T23:46:48.271Z,3.38
2023-02-24T23:49:47.543Z,2.20
2023-02-24T23:52:34.430Z,3.00
2023-02-24T23:55:20.065Z,2.67
2023-02-24T23:58:05.743Z,2.63
